Rochester, Vermont
Current Conditions -  °F | °C
As of 9:55 AM on Monday 24 Nov 2014 (Local Time) from K6B0 Reporting Station
Drizzle Drizzle  
Wind Chill: 58°   Ceiling: 2700
Heat Index: 58°   Visibility: 5mi
Dew Point: 58°   Wind: 14mph
Humidity: 99%   Direction: 170°S
Pressure: 29.53"   Gusts: 24mph
Location:  43.87°N, 72.81°W
Report Text: K6B0 241455Z AUTO 17012G21KT 5SM DZ SCT021 BKN027 OVC033 15/15 A2953 RMK AO2 P0001 60002 T01460145
Loading
Personal Weather Stations






























Interactive Weather Map New forecast layout! Learn more

10-Day Weather Forecast

Advertisements
Track Severe Weather on mobile